Time;durP1;ratioP1;P1;durP2;ratioP2;P2;SDS_P1;SDS_P2;PMS_P1;PMS_P2;Temp;Humidity;BMP_temperature;BMP_pressure;BME280_temperature;BME280_humidity;BME280_pressure;Samples;Min_cycle;Max_cycle;Signal;HPM_P1;HPM_P2
2022/03/09 00:01:40;;;;;;;16.38;12.48;;;;;;;3.61;49.63;102082.56;5012315;28;20030;-68
2022/03/09 00:04:05;;;;;;;20.30;12.88;;;;;;;3.56;50.18;102081.81;5012291;28;20024;-68
2022/03/09 00:06:30;;;;;;;18.25;12.80;;;;;;;3.49;50.52;102086.31;5012056;28;20381;-68
2022/03/09 00:08:56;;;;;;;20.52;11.85;;;;;;;3.44;50.50;102088.19;5009796;28;20314;-68
2022/03/09 00:11:21;;;;;;;17.13;12.68;;;;;;;3.44;50.18;102088.19;5011863;28;20505;-68
2022/03/09 00:13:47;;;;;;;21.17;12.57;;;;;;;3.42;49.54;102096.03;5010973;28;20022;-68
2022/03/09 00:16:13;;;;;;;19.48;12.27;;;;;;;3.38;49.44;102090.94;5010825;28;20402;-68
2022/03/09 00:18:38;;;;;;;18.67;12.05;;;;;;;3.35;50.03;102088.41;4991785;28;20494;-68
2022/03/09 00:21:04;;;;;;;17.50;12.00;;;;;;;3.32;49.04;102093.69;4990283;28;20022;-68
2022/03/09 00:23:29;;;;;;;18.85;11.75;;;;;;;3.31;49.51;102094.56;5003007;28;20045;-68
2022/03/09 00:25:54;;;;;;;18.08;11.77;;;;;;;3.26;50.15;102093.84;5020016;28;20509;-68
2022/03/09 00:28:20;;;;;;;16.30;11.20;;;;;;;3.24;50.66;102095.63;5011002;28;20593;-68
2022/03/09 00:30:45;;;;;;;16.60;11.55;;;;;;;3.21;51.02;102095.69;5028582;28;20059;-68
2022/03/09 00:33:10;;;;;;;16.50;11.15;;;;;;;3.17;50.51;102088.81;5029830;28;20021;-68
2022/03/09 00:35:39;;;;;;;19.63;11.55;;;;;;;3.11;50.52;102095.03;5030760;28;20095;-68
2022/03/09 00:38:06;;;;;;;15.30;10.73;;;;;;;3.08;51.19;102100.28;5030699;28;20029;-68
2022/03/09 00:40:31;;;;;;;14.85;11.30;;;;;;;3.05;50.00;102101.22;5031249;28;20025;-68
2022/03/09 00:42:57;;;;;;;19.52;11.07;;;;;;;3.03;50.95;102100.41;5012134;28;20765;-68
2022/03/09 00:45:22;;;;;;;16.65;11.27;;;;;;;3.00;52.12;102097.88;5011655;28;20018;-68
2022/03/09 00:47:47;;;;;;;19.33;11.05;;;;;;;2.99;51.02;102096.16;5011584;28;20026;-68
2022/03/09 00:50:13;;;;;;;18.52;11.40;;;;;;;2.96;51.33;102093.63;5010795;28;20034;-68
2022/03/09 00:52:38;;;;;;;16.77;10.73;;;;;;;2.94;50.85;102095.41;5011476;28;20037;-68
2022/03/09 00:55:06;;;;;;;13.38;10.23;;;;;;;2.90;51.12;102101.56;5011400;28;20400;-68
2022/03/09 00:57:31;;;;;;;15.20;11.00;;;;;;;2.86;51.89;102102.53;5010272;28;20026;-68
2022/03/09 00:59:56;;;;;;;15.23;10.70;;;;;;;2.83;51.46;102103.47;5011267;28;20037;-68
2022/03/09 01:02:21;;;;;;;14.35;10.43;;;;;;;2.81;51.21;102104.38;5010984;28;20029;-68
2022/03/09 01:04:47;;;;;;;15.65;10.90;;;;;;;2.78;51.87;102096.63;5011170;28;20029;-68
2022/03/09 01:07:12;;;;;;;16.90;10.85;;;;;;;2.74;52.18;102094.97;5010924;28;20049;-68
2022/03/09 01:09:37;;;;;;;15.80;10.63;;;;;;;2.72;51.71;102099.34;4995396;28;20351;-68
2022/03/09 01:12:03;;;;;;;18.90;10.43;;;;;;;2.70;51.76;102096.78;5011108;28;20107;-68
2022/03/09 01:14:29;;;;;;;15.00;9.45;;;;;;;2.70;51.58;102095.94;5002086;28;20034;-68
2022/03/09 01:16:54;;;;;;;16.08;10.82;;;;;;;2.69;51.61;102094.22;4990487;28;20550;-68
2022/03/09 01:19:20;;;;;;;14.98;9.50;;;;;;;2.71;51.33;102095.03;4990831;28;20289;-68
2022/03/09 01:21:45;;;;;;;14.45;9.93;;;;;;;2.71;50.70;102095.03;4990650;28;20113;-68
2022/03/09 01:24:10;;;;;;;15.20;10.45;;;;;;;2.72;50.91;102097.59;4988978;28;20014;-68
2022/03/09 01:26:35;;;;;;;15.52;10.50;;;;;;;2.71;50.16;102090.72;4990960;28;20037;-68
2022/03/09 01:29:01;;;;;;;14.10;10.18;;;;;;;2.70;50.66;102082.94;4990249;28;20053;-68
2022/03/09 01:31:26;;;;;;;14.90;10.90;;;;;;;2.73;50.82;102098.47;4991077;28;20492;-67
2022/03/09 01:33:52;;;;;;;14.40;10.07;;;;;;;2.73;51.34;102098.47;5002973;28;20030;-68
2022/03/09 01:36:17;;;;;;;15.07;10.95;;;;;;;2.71;51.70;102095.03;4989967;28;20525;-68
2022/03/09 01:38:42;;;;;;;16.15;9.70;;;;;;;2.71;50.77;102097.66;4996138;28;20030;-68
2022/03/09 01:41:08;;;;;;;16.10;9.82;;;;;;;2.72;51.64;102097.59;5015998;28;20029;-67
2022/03/09 01:43:34;;;;;;;16.33;10.05;;;;;;;2.72;50.55;102096.75;5016117;28;20010;-68
2022/03/09 01:45:59;;;;;;;14.40;10.40;;;;;;;2.71;50.50;102089.84;5009419;28;20474;-68
2022/03/09 01:48:24;;;;;;;15.25;10.25;;;;;;;2.70;50.10;102086.41;5029537;28;20124;-68
2022/03/09 01:50:49;;;;;;;15.57;9.63;;;;;;;2.69;51.30;102087.28;5014353;28;20083;-67
2022/03/09 01:53:17;;;;;;;15.23;10.30;;;;;;;2.67;51.90;102085.59;5009720;28;20109;-68
2022/03/09 01:55:42;;;;;;;14.70;9.73;;;;;;;2.66;50.60;102089.09;5010182;28;20041;-67
2022/03/09 01:58:07;;;;;;;16.63;9.88;;;;;;;2.67;50.84;102081.28;5010677;28;20021;-67
2022/03/09 02:00:33;;;;;;;15.85;9.88;;;;;;;2.66;50.30;102081.31;5029514;28;20075;-67
2022/03/09 02:02:58;;;;;;;14.68;10.73;;;;;;;2.64;50.27;102080.47;5021867;28;20061;-68
2022/03/09 02:05:23;;;;;;;14.63;9.80;;;;;;;2.65;50.56;102082.19;5009373;28;20513;-67
2022/03/09 02:10:33;;;;;;;15.98;10.30;;;;;;;2.61;51.93;102078.81;5010156;28;20099;-68
2022/03/09 02:12:59;;;;;;;15.18;10.05;;;;;;;2.60;50.68;102076.25;5009505;28;20029;-67
2022/03/09 02:15:24;;;;;;;23.17;10.77;;;;;;;2.59;51.13;102080.59;5009833;28;20022;-67
2022/03/09 02:17:50;;;;;;;14.75;10.15;;;;;;;2.59;51.51;102077.13;5008595;28;20471;-67
2022/03/09 02:20:15;;;;;;;15.18;10.10;;;;;;;2.56;50.65;102082.38;5008634;28;20030;-67
2022/03/09 02:22:43;;;;;;;14.55;10.30;;;;;;;2.55;51.71;102089.34;5007868;28;20029;-68
2022/03/09 02:25:10;;;;;;;15.55;10.50;;;;;;;2.54;51.23;102086.75;5009248;28;20111;-68
2022/03/09 02:27:39;;;;;;;16.15;10.77;;;;;;;2.51;50.94;102083.34;5006593;28;20025;-68
2022/03/09 02:30:06;;;;;;;15.20;10.02;;;;;;;2.49;51.78;102090.31;4989662;28;20125;-68
2022/03/09 02:32:31;;;;;;;15.27;10.55;;;;;;;2.48;51.75;102083.41;5004908;28;20696;-68
2022/03/09 02:34:57;;;;;;;14.65;10.30;;;;;;;2.47;51.83;102078.25;5008041;28;20065;-67
2022/03/09 02:37:22;;;;;;;20.00;11.10;;;;;;;2.47;51.30;102086.03;5009098;28;20125;-67
2022/03/09 02:39:47;;;;;;;13.88;10.13;;;;;;;2.46;51.38;102082.59;4993038;28;20538;-68
2022/03/09 02:42:13;;;;;;;19.02;11.02;;;;;;;2.44;51.50;102076.56;5019048;28;20393;-67
2022/03/09 02:44:38;;;;;;;17.10;10.63;;;;;;;2.43;51.00;102069.66;5007172;28;20053;-68
2022/03/09 02:47:04;;;;;;;16.38;11.25;;;;;;;2.42;52.01;102070.56;5020357;28;20038;-67
2022/03/09 02:49:30;;;;;;;14.13;10.15;;;;;;;2.40;51.69;102064.53;5028558;28;20393;-68
2022/03/09 02:51:55;;;;;;;22.27;10.73;;;;;;;2.39;51.58;102061.94;5029078;28;20124;-68
2022/03/09 02:54:21;;;;;;;16.45;10.63;;;;;;;2.37;51.80;102059.38;5005814;28;20116;-67
2022/03/09 02:56:46;;;;;;;17.70;10.73;;;;;;;2.35;51.81;102055.97;5008768;28;20394;-67
2022/03/09 02:59:11;;;;;;;16.77;10.40;;;;;;;2.34;52.09;102058.59;5016433;28;20029;-68
2022/03/09 03:01:37;;;;;;;16.52;10.75;;;;;;;2.33;51.61;102062.94;4989370;28;20117;-67
2022/03/09 03:04:03;;;;;;;15.50;10.95;;;;;;;2.32;52.51;102056.03;4989343;28;20475;-68
2022/03/09 03:06:28;;;;;;;15.90;10.90;;;;;;;2.30;52.64;102068.19;4989577;28;20034;-67
2022/03/09 03:08:53;;;;;;;15.48;10.65;;;;;;;2.29;52.26;102070.81;4989342;28;20458;-68
2022/03/09 03:11:19;;;;;;;16.27;11.18;;;;;;;2.28;52.24;102071.69;5010725;28;20025;-68
2022/03/09 03:13:45;;;;;;;18.15;10.70;;;;;;;2.26;52.43;102071.72;5010958;28;20029;-67
2022/03/09 03:16:10;;;;;;;19.77;10.88;;;;;;;2.23;52.68;102074.38;5011946;28;20021;-67
2022/03/09 03:18:36;;;;;;;18.77;11.43;;;;;;;2.20;52.87;102069.25;5024059;28;20026;-68
2022/03/09 03:21:02;;;;;;;15.85;10.82;;;;;;;2.17;52.98;102072.78;5007243;28;20026;-68
2022/03/09 03:23:30;;;;;;;16.50;11.45;;;;;;;2.16;53.18;102080.59;4990693;28;20014;-67
2022/03/09 03:25:57;;;;;;;15.98;10.63;;;;;;;2.12;53.68;102073.75;5008454;28;20381;-67
2022/03/09 03:28:23;;;;;;;15.13;10.60;;;;;;;2.09;53.57;102076.41;5008620;28;20036;-67
2022/03/09 03:30:50;;;;;;;16.98;10.77;;;;;;;2.05;52.94;102061.78;5006852;28;20029;-68
2022/03/09 03:33:17;;;;;;;15.50;11.48;;;;;;;2.02;53.68;102072.22;5008486;28;20036;-68
2022/03/09 03:35:43;;;;;;;17.42;10.88;;;;;;;1.99;53.47;102057.53;4999475;28;20046;-68
2022/03/09 03:38:09;;;;;;;16.42;11.20;;;;;;;1.97;53.22;102059.31;4988297;28;20038;-68
2022/03/09 03:40:35;;;;;;;17.27;11.13;;;;;;;1.94;53.83;102061.97;4989312;28;20049;-67
2022/03/09 03:43:00;;;;;;;16.75;11.50;;;;;;;1.92;53.86;102066.31;4988909;28;20470;-67
2022/03/09 03:45:26;;;;;;;16.15;10.93;;;;;;;1.88;53.90;102059.47;5007129;28;20101;-67
2022/03/09 03:47:51;;;;;;;16.25;11.15;;;;;;;1.86;53.77;102062.09;5008391;28;20030;-67
2022/03/09 03:50:18;;;;;;;14.05;10.77;;;;;;;1.83;53.69;102067.34;5007967;28;20034;-67
2022/03/09 03:52:43;;;;;;;16.88;10.85;;;;;;;1.81;53.88;102069.13;5004167;28;20026;-67
2022/03/09 03:55:09;;;;;;;18.08;11.60;;;;;;;1.80;53.84;102066.56;5008931;28;20048;-67
2022/03/09 03:57:34;;;;;;;17.48;11.27;;;;;;;1.77;54.27;102069.22;5012739;28;20034;-68
2022/03/09 04:00:00;;;;;;;18.85;11.25;;;;;;;1.75;54.28;102064.06;5011867;28;20025;-67
2022/03/09 04:02:26;;;;;;;15.75;10.43;;;;;;;1.74;54.29;102070.13;5012784;28;20026;-67
2022/03/09 04:04:51;;;;;;;18.10;11.45;;;;;;;1.73;54.19;102076.19;5012750;28;20181;-67
2022/03/09 04:07:17;;;;;;;19.15;11.43;;;;;;;1.70;54.65;102076.25;5010386;28;20026;-68
2022/03/09 04:09:42;;;;;;;18.15;11.32;;;;;;;1.70;54.48;102071.06;5007178;28;20037;-68
2022/03/09 04:12:08;;;;;;;18.55;11.13;;;;;;;1.68;54.57;102083.19;5011634;28;20037;-68
2022/03/09 04:14:34;;;;;;;15.98;11.20;;;;;;;1.67;55.03;102073.72;5016170;28;20108;-68
2022/03/09 04:16:59;;;;;;;15.05;10.57;;;;;;;1.65;54.54;102078.06;5025406;28;20100;-68
2022/03/09 04:19:24;;;;;;;16.10;10.50;;;;;;;1.64;54.84;102073.75;5019410;28;20332;-68
2022/03/09 04:21:50;;;;;;;16.08;10.95;;;;;;;1.64;55.26;102070.31;5027653;28;20037;-68
2022/03/09 04:24:15;;;;;;;15.25;11.23;;;;;;;1.62;54.57;102069.50;5031220;28;20018;-68
2022/03/09 04:26:40;;;;;;;20.17;11.38;;;;;;;1.61;55.04;102071.22;5013312;28;20034;-68
2022/03/09 04:29:05;;;;;;;17.40;11.15;;;;;;;1.59;54.87;102070.38;4990160;28;20022;-68
2022/03/09 04:31:31;;;;;;;18.40;11.40;;;;;;;1.57;54.63;102064.34;4991986;28;20113;-68
2022/03/09 04:33:56;;;;;;;20.40;11.57;;;;;;;1.56;55.03;102062.63;4989310;28;20121;-68
2022/03/09 04:36:22;;;;;;;23.30;12.07;;;;;;;1.55;55.04;102055.75;4991608;28;20499;-68
2022/03/09 04:38:47;;;;;;;13.38;10.10;;;;;;;1.54;54.84;102059.22;4992975;28;20487;-67
2022/03/09 04:41:12;;;;;;;15.45;10.77;;;;;;;1.50;55.84;102061.00;4991086;28;20038;-68
2022/03/09 04:43:38;;;;;;;14.68;10.98;;;;;;;1.50;54.94;102062.75;5001645;28;20036;-68
2022/03/09 04:46:03;;;;;;;17.65;11.50;;;;;;;1.46;55.19;102061.09;5012113;28;20446;-68
2022/03/09 04:48:28;;;;;;;17.17;11.63;;;;;;;1.44;54.98;102055.06;4991254;28;20022;-68
2022/03/09 04:50:53;;;;;;;14.70;10.98;;;;;;;1.42;54.89;102059.44;5023417;28;20389;-68
2022/03/09 04:53:19;;;;;;;16.33;11.55;;;;;;;1.39;55.64;102054.31;5020474;28;20038;-68
2022/03/09 04:55:44;;;;;;;16.38;11.07;;;;;;;1.37;55.41;102054.31;5010957;28;20022;-68
2022/03/09 04:58:10;;;;;;;17.15;11.35;;;;;;;1.36;55.50;102055.22;5011337;28;20029;-68
2022/03/09 05:00:35;;;;;;;17.63;11.40;;;;;;;1.35;55.65;102057.81;5011112;28;20537;-68
2022/03/09 05:03:00;;;;;;;18.60;11.27;;;;;;;1.32;55.53;102061.31;5025601;28;20044;-68
2022/03/09 05:05:26;;;;;;;16.08;11.38;;;;;;;1.32;55.94;102057.88;5005965;28;20092;-68
2022/03/09 05:07:51;;;;;;;14.93;11.05;;;;;;;1.30;55.66;102059.66;4990443;28;20057;-68
2022/03/09 05:10:16;;;;;;;16.40;11.43;;;;;;;1.29;55.95;102057.94;5002627;28;20046;-68
2022/03/09 05:12:42;;;;;;;17.65;11.38;;;;;;;1.27;55.88;102059.69;5011230;28;20026;-68
2022/03/09 05:15:07;;;;;;;18.08;11.75;;;;;;;1.26;56.74;102064.03;5011081;28;21102;-68
2022/03/09 05:17:39;;;;;;;15.65;11.25;;;;;;;1.25;55.22;102062.31;5010277;28;20509;-68
2022/03/09 05:20:05;;;;;;;17.52;11.30;;;;;;;1.23;56.12;102064.94;5011192;28;20030;-68
2022/03/09 05:22:30;;;;;;;18.63;11.70;;;;;;;1.20;56.17;102059.78;5008736;28;20068;-68
2022/03/09 05:24:55;;;;;;;17.38;11.30;;;;;;;1.18;56.00;102061.53;5008853;28;20029;-68
2022/03/09 05:27:20;;;;;;;15.18;10.90;;;;;;;1.17;55.59;102058.97;5005447;28;20453;-68
2022/03/09 05:29:46;;;;;;;17.85;11.35;;;;;;;1.15;55.42;102060.72;5004780;28;20038;-68
2022/03/09 05:32:11;;;;;;;16.02;10.75;;;;;;;1.14;55.88;102059.88;5009985;28;20048;-68
2022/03/09 05:34:36;;;;;;;15.80;11.20;;;;;;;1.13;56.04;102070.25;5010087;28;20026;-68
2022/03/09 05:37:02;;;;;;;18.23;11.63;;;;;;;1.09;56.44;102066.00;5009313;28;20082;-68
2022/03/09 05:39:27;;;;;;;17.25;11.07;;;;;;;1.06;56.57;102064.31;5008753;28;20223;-68
2022/03/09 05:41:56;;;;;;;19.60;11.55;;;;;;;1.07;56.22;102068.63;5004781;28;20031;-68
2022/03/09 05:44:21;;;;;;;17.55;11.55;;;;;;;1.06;55.82;102071.22;5009117;28;20501;-68
2022/03/09 05:46:47;;;;;;;21.33;11.73;;;;;;;1.05;56.60;102069.53;5009639;28;20033;-68
2022/03/09 05:49:12;;;;;;;16.80;11.88;;;;;;;1.05;56.60;102070.38;5008114;28;20026;-68
2022/03/09 05:51:37;;;;;;;18.38;11.45;;;;;;;1.05;56.49;102069.53;5009460;28;20033;-68
2022/03/09 05:54:03;;;;;;;16.10;10.80;;;;;;;1.02;56.35;102078.19;5009860;28;20030;-68
2022/03/09 05:56:28;;;;;;;16.88;10.95;;;;;;;1.01;56.49;102084.25;5008895;28;20460;-68
2022/03/09 05:58:56;;;;;;;17.42;11.63;;;;;;;1.01;56.61;102086.00;5007863;28;20025;-68
2022/03/09 06:01:23;;;;;;;18.33;11.35;;;;;;;1.01;56.83;102089.44;5008931;28;20409;-68
2022/03/09 06:03:48;;;;;;;16.95;12.00;;;;;;;1.00;56.96;102105.88;5019544;28;20010;-68
2022/03/09 06:06:14;;;;;;;17.48;11.68;;;;;;;1.00;56.54;102099.84;4999935;28;20073;-68
2022/03/09 06:08:39;;;;;;;19.15;12.27;;;;;;;0.99;56.13;102106.75;5018938;28;20053;-68
2022/03/09 06:11:05;;;;;;;16.52;11.43;;;;;;;0.99;56.61;102111.06;5017393;28;20504;-68
2022/03/09 06:13:30;;;;;;;19.70;11.55;;;;;;;0.97;56.72;102108.50;5009032;28;20034;-68
2022/03/09 06:15:55;;;;;;;18.75;11.00;;;;;;;0.97;57.12;102113.69;5009638;28;20068;-68
2022/03/09 06:18:21;;;;;;;21.85;11.82;;;;;;;0.95;56.99;102110.25;4991009;28;20062;-68
2022/03/09 06:20:47;;;;;;;17.60;11.05;;;;;;;0.96;57.41;102111.13;4989015;28;20026;-68
2022/03/09 06:23:12;;;;;;;16.70;11.00;;;;;;;0.95;57.05;102115.44;4989744;28;20080;-68
2022/03/09 06:25:37;;;;;;;15.25;11.55;;;;;;;0.96;57.42;102111.13;4988236;28;20494;-68
2022/03/09 06:28:03;;;;;;;18.38;12.18;;;;;;;0.95;57.60;102110.25;4988002;28;20034;-68
2022/03/09 06:30:28;;;;;;;19.77;12.00;;;;;;;0.94;57.86;102113.72;4989651;28;20029;-68
2022/03/09 06:32:54;;;;;;;19.52;11.57;;;;;;;0.94;57.47;102114.59;5018503;28;20030;-68
2022/03/09 06:35:19;;;;;;;20.55;11.27;;;;;;;0.94;58.23;102111.13;5008960;28;20038;-68
2022/03/09 06:37:45;;;;;;;19.33;12.15;;;;;;;0.91;57.61;102119.81;5018191;28;20040;-68
2022/03/09 06:40:11;;;;;;;20.77;11.52;;;;;;;0.91;57.74;102124.13;5027940;28;20477;-68
2022/03/09 06:42:37;;;;;;;19.60;11.45;;;;;;;0.91;57.42;102122.41;5018187;28;20034;-68
2022/03/09 06:45:03;;;;;;;21.80;11.98;;;;;;;0.91;57.58;102132.78;5004915;28;20036;-68
2022/03/09 06:47:28;;;;;;;18.63;11.98;;;;;;;0.92;57.65;102126.72;5008649;28;20594;-68
2022/03/09 06:49:54;;;;;;;18.73;11.20;;;;;;;0.95;57.37;102141.34;5017734;28;20123;-68
2022/03/09 06:52:19;;;;;;;20.08;12.35;;;;;;;0.95;57.30;102141.34;5025871;28;20126;-68
2022/03/09 06:54:44;;;;;;;19.15;11.93;;;;;;;0.97;57.12;102146.50;5008200;28;20030;-68
2022/03/09 06:57:10;;;;;;;19.95;11.85;;;;;;;0.98;57.07;102149.09;5009429;28;20129;-68
2022/03/09 06:59:37;;;;;;;21.15;12.55;;;;;;;0.99;57.49;102148.22;4999953;28;20057;-68
2022/03/09 07:02:03;;;;;;;18.15;12.57;;;;;;;1.03;57.82;102154.22;5007110;28;20029;-68
2022/03/09 07:04:28;;;;;;;18.75;11.70;;;;;;;1.04;57.23;102159.38;5009722;28;20109;-68
2022/03/09 07:06:53;;;;;;;19.25;12.18;;;;;;;1.09;57.12;102161.88;5009291;28;20110;-68
2022/03/09 07:09:19;;;;;;;17.80;12.35;;;;;;;1.11;57.01;102157.53;5002854;28;20032;-68
2022/03/09 07:11:44;;;;;;;18.73;11.82;;;;;;;1.14;56.91;102166.13;5011035;28;20025;-68
2022/03/09 07:14:10;;;;;;;17.20;11.90;;;;;;;1.18;57.14;102166.94;5006501;28;20034;-68
2022/03/09 07:16:35;;;;;;;17.55;11.95;;;;;;;1.20;57.51;102160.00;4995579;28;20044;-68
2022/03/09 07:19:00;;;;;;;17.95;11.68;;;;;;;1.25;56.49;102168.59;5003338;28;20088;-68
2022/03/09 07:21:26;;;;;;;17.85;11.02;;;;;;;1.30;56.21;102168.53;5000467;28;20029;-68
2022/03/09 07:23:51;;;;;;;19.65;11.75;;;;;;;1.36;56.31;102158.06;4997464;28;20387;-68
2022/03/09 07:26:17;;;;;;;17.45;11.98;;;;;;;1.43;56.48;102164.88;4996189;28;20049;-68
2022/03/09 07:28:42;;;;;;;20.90;12.10;;;;;;;1.47;56.14;102161.34;4993888;28;20030;-68
2022/03/09 07:31:08;;;;;;;16.73;11.50;;;;;;;1.54;56.11;102157.78;4991836;28;20038;-68
2022/03/09 07:33:34;;;;;;;18.23;11.00;;;;;;;1.62;55.30;102160.28;4992714;28;20026;-69
2022/03/09 07:36:00;;;;;;;20.55;11.80;;;;;;;1.66;55.67;102156.75;4992406;28;20049;-69
2022/03/09 07:38:26;;;;;;;18.63;11.65;;;;;;;1.73;55.91;102154.03;4991522;28;20037;-69
2022/03/09 07:40:51;;;;;;;19.42;11.85;;;;;;;1.80;55.24;102155.63;4997740;28;20029;-69
2022/03/09 07:43:17;;;;;;;17.88;11.90;;;;;;;1.88;54.41;102152.91;5023312;28;20116;-69
2022/03/09 07:45:42;;;;;;;19.77;11.95;;;;;;;1.95;55.64;102159.69;5011645;28;20067;-69
2022/03/09 07:48:08;;;;;;;21.63;11.35;;;;;;;2.04;54.54;102153.50;5025166;28;20021;-69
2022/03/09 07:50:33;;;;;;;16.30;11.07;;;;;;;2.11;54.65;102150.78;4992279;28;20030;-69
2022/03/09 07:52:59;;;;;;;17.13;11.90;;;;;;;2.21;54.59;102156.66;5000450;28;20030;-67
2022/03/09 07:55:24;;;;;;;18.80;11.20;;;;;;;2.29;54.82;102153.91;5003677;28;20027;-71
2022/03/09 07:57:50;;;;;;;16.52;11.38;;;;;;;2.38;54.42;102153.72;4994921;28;20026;-69
2022/03/09 08:00:16;;;;;;;17.80;12.05;;;;;;;2.46;54.22;102157.91;5018639;28;20037;-68
2022/03/09 08:02:41;;;;;;;17.05;11.88;;;;;;;2.55;53.26;102167.25;4996524;28;20041;-68
2022/03/09 08:05:07;;;;;;;16.80;11.57;;;;;;;2.64;53.64;102161.88;5006789;28;20099;-68
2022/03/09 08:07:33;;;;;;;19.23;12.05;;;;;;;2.76;53.08;102160.78;5012546;28;20026;-70
2022/03/09 08:09:59;;;;;;;18.42;11.88;;;;;;;2.87;52.55;102163.16;5012524;28;20025;-68
2022/03/09 08:12:24;;;;;;;18.05;11.93;;;;;;;2.95;52.92;102156.91;5010376;28;20026;-69
2022/03/09 08:14:50;;;;;;;19.90;11.25;;;;;;;3.04;52.39;102166.25;5012404;28;20101;-68
2022/03/09 08:17:15;;;;;;;26.88;11.68;;;;;;;3.13;52.41;102169.50;5011930;28;20033;-69
2022/03/09 08:19:40;;;;;;;19.85;11.70;;;;;;;3.26;51.46;102174.47;5011512;28;20022;-69
2022/03/09 08:22:06;;;;;;;19.13;12.23;;;;;;;3.36;51.95;102175.94;4997091;28;20038;-69
2022/03/09 08:24:34;;;;;;;22.27;12.52;;;;;;;3.47;51.58;102171.34;5011007;28;20069;-69
2022/03/09 08:27:03;;;;;;;17.02;11.68;;;;;;;3.57;50.87;102178.03;5009908;28;20504;-69
2022/03/09 08:29:28;;;;;;;18.65;11.75;;;;;;;3.64;50.61;102174.44;4991744;28;20125;-69
2022/03/09 08:31:54;;;;;;;19.98;12.15;;;;;;;3.74;50.48;102169.84;4990404;28;20903;-69
2022/03/09 08:34:19;;;;;;;22.98;11.88;;;;;;;3.84;49.27;102171.34;4991400;28;20953;-69
2022/03/09 08:36:44;;;;;;;18.35;11.80;;;;;;;3.96;49.39;102170.16;4991482;28;20046;-69
2022/03/09 08:39:10;;;;;;;21.45;12.60;;;;;;;4.06;49.53;102167.31;5007346;28;20112;-69
2022/03/09 08:41:36;;;;;;;19.05;11.57;;;;;;;4.15;50.27;102181.84;5021297;28;20033;-69
2022/03/09 08:44:02;;;;;;;18.58;12.40;;;;;;;4.25;49.26;102172.88;5017307;28;20017;-69
2022/03/09 08:46:28;;;;;;;21.95;12.27;;;;;;;4.36;49.57;102180.41;5012015;28;20026;-69
2022/03/09 08:48:57;;;;;;;18.70;11.88;;;;;;;4.49;49.69;102178.34;5031044;28;20033;-69
2022/03/09 08:51:23;;;;;;;19.98;12.90;;;;;;;4.58;48.84;102178.94;5031168;28;20022;-69
2022/03/09 08:53:48;;;;;;;20.88;12.38;;;;;;;4.68;48.72;102177.78;5013643;28;20813;-69
2022/03/09 08:56:14;;;;;;;21.05;12.75;;;;;;;4.80;49.47;102181.78;5005777;28;20041;-69
2022/03/09 08:58:39;;;;;;;22.35;12.50;;;;;;;4.90;49.07;102179.78;5008291;28;20497;-69
2022/03/09 09:01:05;;;;;;;18.48;12.15;;;;;;;4.98;48.90;102175.19;5030691;28;20098;-69
2022/03/09 09:03:31;;;;;;;19.90;12.35;;;;;;;5.07;48.73;102180.13;5024861;28;20026;-69
2022/03/09 09:05:56;;;;;;;20.92;12.75;;;;;;;5.16;48.55;102182.47;5010487;28;20037;-69
2022/03/09 09:08:22;;;;;;;19.52;12.50;;;;;;;5.23;48.13;102175.34;4994305;28;20398;-69
2022/03/09 09:10:48;;;;;;;24.15;13.05;;;;;;;5.33;48.37;102176.75;4991927;28;20092;-69
2022/03/09 09:13:14;;;;;;;21.98;12.95;;;;;;;5.42;48.52;102176.47;4991864;28;20034;-69
2022/03/09 09:15:39;;;;;;;18.92;12.73;;;;;;;5.49;47.68;102172.75;4990922;28;20044;-69
2022/03/09 09:18:06;;;;;;;22.25;13.30;;;;;;;5.58;48.07;102169.84;4991511;28;20097;-69
2022/03/09 09:20:32;;;;;;;22.38;12.90;;;;;;;5.69;47.75;102166.91;4991875;28;20479;-69
2022/03/09 09:22:58;;;;;;;23.52;14.13;;;;;;;5.78;47.36;102165.75;4990940;28;20031;-70
2022/03/09 09:25:26;;;;;;;20.77;12.68;;;;;;;5.89;47.86;102176.69;4991607;28;20382;-69
2022/03/09 09:27:52;;;;;;;22.85;14.50;;;;;;;5.95;46.23;102172.16;4990949;28;20101;-69
2022/03/09 09:30:18;;;;;;;20.33;13.40;;;;;;;6.09;46.63;102174.31;4990031;28;20161;-69
2022/03/09 09:32:43;;;;;;;21.95;13.60;;;;;;;6.16;47.06;102170.59;4994585;28;20033;-69
2022/03/09 09:35:10;;;;;;;25.33;14.00;;;;;;;6.29;46.42;102166.63;5021003;28;20041;-69
2022/03/09 09:37:36;;;;;;;21.20;14.38;;;;;;;6.38;46.33;102175.03;5006845;28;20022;-69
2022/03/09 09:40:02;;;;;;;21.17;13.77;;;;;;;6.48;46.52;102176.44;5020688;28;20099;-69
2022/03/09 09:42:30;;;;;;;26.63;13.52;;;;;;;6.58;46.15;102177.81;5018695;28;20017;-69
2022/03/09 09:45:00;;;;;;;22.42;13.80;;;;;;;6.67;46.24;102172.25;5012402;28;20021;-69
2022/03/09 09:47:27;;;;;;;22.90;14.45;;;;;;;6.77;45.69;102172.75;5022700;28;20047;-69
2022/03/09 09:49:56;;;;;;;21.48;14.40;;;;;;;6.86;45.87;102175.91;5029372;28;20355;-69
2022/03/09 09:52:25;;;;;;;22.83;14.05;;;;;;;6.95;45.76;102166.00;5025498;28;20026;-69
2022/03/09 09:54:56;;;;;;;19.48;14.13;;;;;;;7.08;46.28;102165.47;5006830;28;20081;-69
2022/03/09 09:57:26;;;;;;;24.65;13.98;;;;;;;7.21;45.64;102177.22;4990127;28;20122;-69
2022/03/09 09:59:51;;;;;;;28.33;14.38;;;;;;;7.32;45.89;102168.94;5017521;28;20041;-69
2022/03/09 10:02:17;;;;;;;23.67;14.68;;;;;;;7.42;45.76;102162.41;4992515;28;20088;-69
2022/03/09 10:04:42;;;;;;;22.30;14.07;;;;;;;7.54;45.31;102161.91;4990162;28;20026;-69
2022/03/09 10:07:08;;;;;;;25.85;14.82;;;;;;;7.66;45.92;102168.44;4990802;28;20037;-69
2022/03/09 10:09:35;;;;;;;23.30;14.93;;;;;;;7.81;45.55;102165.19;4991023;28;20040;-69
2022/03/09 10:12:01;;;;;;;25.98;14.43;;;;;;;7.97;45.78;102165.38;4990089;28;20030;-69
2022/03/09 10:14:43;;;;;;;23.05;14.70;;;;;;;8.08;45.68;102163.19;4991143;28;20096;-69
2022/03/09 10:17:13;;;;;;;28.25;15.13;;;;;;;8.20;44.59;102156.56;4989803;28;20431;-69
2022/03/09 10:19:44;;;;;;;25.35;14.77;;;;;;;8.35;44.84;102165.56;4989957;28;20044;-69
2022/03/09 10:22:44;;;;;;;23.00;14.65;;;;;;;8.46;45.50;102158.09;5005628;28;20085;-69
2022/03/09 10:25:09;;;;;;;23.33;15.18;;;;;;;8.63;44.24;102147.69;4972906;28;20041;-69
2022/03/09 10:28:06;;;;;;;26.23;16.33;;;;;;;8.77;44.52;102144.44;5001011;28;20018;-69
2022/03/09 10:30:39;;;;;;;26.08;16.10;;;;;;;8.90;43.49;102136.88;5009462;28;20393;-70
2022/03/09 10:33:07;;;;;;;25.27;16.05;;;;;;;9.09;44.36;102137.69;5008644;28;20033;-69
2022/03/09 10:35:32;;;;;;;25.65;15.57;;;;;;;9.21;43.23;102138.94;5009370;28;20050;-70
2022/03/09 10:38:03;;;;;;;23.07;15.30;;;;;;;9.47;43.44;102135.03;5009358;28;20036;-70
2022/03/09 10:40:31;;;;;;;26.73;16.48;;;;;;;9.64;43.04;102137.69;5007847;28;20277;-70
2022/03/09 10:43:13;;;;;;;22.95;16.15;;;;;;;9.78;43.51;102148.38;5009307;28;20375;-69
2022/03/09 10:45:57;;;;;;;27.25;16.83;;;;;;;9.97;42.70;102148.28;5001349;28;20045;-70
2022/03/09 10:48:26;;;;;;;25.88;16.23;;;;;;;10.19;41.93;102143.66;4989796;28;20070;-70
2022/03/09 10:50:52;;;;;;;27.42;16.77;;;;;;;10.36;42.53;102145.41;4989855;28;20029;-69
2022/03/09 10:53:18;;;;;;;30.98;17.95;;;;;;;10.49;41.10;102143.88;5000081;28;20052;-70
2022/03/09 10:55:43;;;;;;;26.25;17.00;;;;;;;10.55;41.07;102148.81;4992118;28;20031;-69
2022/03/09 10:58:08;;;;;;;25.63;16.42;;;;;;;10.72;40.95;102142.63;5009495;28;20061;-69
2022/03/09 11:00:47;;;;;;;27.05;16.88;;;;;;;10.87;41.20;102143.59;5006023;28;20087;-70
2022/03/09 11:03:21;;;;;;;28.02;16.98;;;;;;;10.95;40.81;102131.72;5008115;28;20033;-69
2022/03/09 11:05:55;;;;;;;30.45;16.30;;;;;;;11.17;39.99;102133.13;5013657;28;20394;-70
2022/03/09 11:08:22;;;;;;;28.85;17.30;;;;;;;11.37;39.44;102130.25;5011962;28;20041;-70
2022/03/09 11:10:48;;;;;;;26.98;17.02;;;;;;;11.63;40.37;102131.41;5013379;28;20018;-70
2022/03/09 11:13:15;;;;;;;28.73;17.42;;;;;;;11.89;39.42;102133.38;5013531;28;20099;-70
2022/03/09 11:15:42;;;;;;;28.65;17.92;;;;;;;12.03;39.49;102131.75;5012793;28;20474;-70